Time;durP1;ratioP1;P1;durP2;ratioP2;P2;SDS_P1;SDS_P2;PMS_P1;PMS_P2;Temp;Humidity;BMP_temperature;BMP_pressure;BME280_temperature;BME280_humidity;BME280_pressure;Samples;Min_cycle;Max_cycle;Signal;HPM_P1;HPM_P2
2023/07/09 00:01:21;;;;;;;;;;;;;;;23.47;63.54;101610.72;5023789;28;1425;-82
2023/07/09 00:03:51;;;;;;;;;;;;;;;23.46;63.67;101609.09;5021864;28;1987;-82
2023/07/09 00:06:17;;;;;;;;;;;;;;;23.37;63.83;101607.56;5025962;28;1285;-82
2023/07/09 00:08:46;;;;;;;;;;;;;;;23.31;64.03;101604.66;5022415;28;1506;-82
2023/07/09 00:11:14;;;;;;;;;;;;;;;23.27;64.28;101598.09;5023677;28;2376;-82
2023/07/09 00:13:41;;;;;;;;;;;;;;;23.16;64.56;101606.56;5018774;28;1336;-82
2023/07/09 00:16:24;;;;;;;;;;;;;;;;;;;;;
2023/07/09 00:18:52;;;;;;;;;;;;;;;22.99;65.32;101607.81;5011112;28;1320;-82
2023/07/09 00:21:20;;;;;;;;;;;;;;;22.96;65.18;101608.19;5017171;28;992;-82
2023/07/09 00:24:06;;;;;;;;;;;;;;;22.95;65.72;101611.84;5013854;28;1961;-82
2023/07/09 00:26:44;;;;;;;;;;;;;;;;;;;;;
2023/07/09 00:29:12;;;;;;;;;;;;;;;22.91;65.76;101621.97;5019984;28;1414;-82
2023/07/09 00:31:40;;;;;;;;;;;;;;;22.87;65.84;101620.69;5021035;28;1445;-82
2023/07/09 00:34:09;;;;;;;;;;;;;;;22.86;66.18;101628.81;5025679;28;1268;-82
2023/07/09 00:36:48;;;;;;;;;;;;;;;22.82;65.96;101623.06;5010645;28;1410;-82
2023/07/09 00:39:17;;;;;;;;;;;;;;;22.78;66.16;101627.91;5020515;28;1331;-82
2023/07/09 00:41:46;;;;;;;;;;;;;;;22.74;66.55;101626.63;5019815;28;1179;-82
2023/07/09 00:44:31;;;;;;;;;;;;;;;22.72;66.66;101628.66;5023034;28;1910;-82
2023/07/09 00:47:13;;;;;;;;;;;;;;;;;;;;;
2023/07/09 00:49:50;;;;;;;;;;;;;;;22.71;66.99;101636.75;5024285;28;1139;-81
2023/07/09 00:52:39;;;;;;;;;;;;;;;;;;;;;
2023/07/09 00:55:38;;;;;;;;;;;;;;;;;;;;;
2023/07/09 00:58:32;;;;;;;;;;;;;;;22.73;67.48;101634.75;5019712;28;1308;-82
2023/07/09 01:01:25;;;;;;;;;;;;;;;22.72;67.71;101633.13;5019407;28;1654;-82
2023/07/09 01:03:59;;;;;;;;;;;;;;;22.71;68.04;101632.31;5027248;28;1910;-82
2023/07/09 01:06:34;;;;;;;;;;;;;;;22.71;68.24;101636.75;5021444;28;1459;-82
2023/07/09 01:09:11;;;;;;;;;;;;;;;22.72;68.33;101633.94;5019776;28;1144;-82
2023/07/09 01:11:42;;;;;;;;;;;;;;;22.75;68.50;101627.44;5017026;28;1275;-82
2023/07/09 01:14:12;;;;;;;;;;;;;;;22.77;68.60;101634.22;5025117;28;1399;-82
2023/07/09 01:16:53;;;;;;;;;;;;;;;;;;;;;
2023/07/09 01:19:24;;;;;;;;;;;;;;;22.86;68.56;101629.63;5023150;28;1359;-82
2023/07/09 01:24:49;;;;;;;;;;;;;;;22.95;68.43;101625.06;5011207;28;1963;-82
2023/07/09 01:27:33;;;;;;;;;;;;;;;22.97;68.35;101621.22;5022760;28;1272;-81
2023/07/09 01:30:11;;;;;;;;;;;;;;;23.00;68.04;101630.63;5024971;28;1217;-81
2023/07/09 01:33:06;;;;;;;;;;;;;;;23.02;67.97;101628.59;5027833;28;1576;-82
2023/07/09 01:38:26;;;;;;;;;;;;;;;22.96;67.99;101619.59;5021118;28;1287;-82
2023/07/09 01:40:54;;;;;;;;;;;;;;;22.95;68.05;101633.03;5025317;28;1372;-82
2023/07/09 01:43:30;;;;;;;;;;;;;;;22.92;68.42;101630.72;5020463;28;1902;-82
2023/07/09 01:45:58;;;;;;;;;;;;;;;22.88;68.48;101632.09;5018545;28;1367;-82
2023/07/09 01:48:26;;;;;;;;;;;;;;;22.76;68.60;101629.91;5023754;28;1548;-82
2023/07/09 01:51:32;;;;;;;;;;;;;;;;;;;;;
2023/07/09 01:54:00;;;;;;;;;;;;;;;22.63;69.29;101629.75;5025696;28;1208;-82
2023/07/09 01:56:42;;;;;;;;;;;;;;;22.61;69.30;101630.97;5028245;28;1222;-82
2023/07/09 01:59:12;;;;;;;;;;;;;;;22.63;69.42;101635.03;5022820;28;1353;-82
2023/07/09 02:01:41;;;;;;;;;;;;;;;22.60;69.80;101646.00;5027077;28;1694;-81
2023/07/09 02:04:27;;;;;;;;;;;;;;;22.56;69.86;101644.72;5017885;28;1986;-81
2023/07/09 02:06:55;;;;;;;;;;;;;;;22.53;69.88;101645.91;5016879;28;1416;-81
2023/07/09 02:09:29;;;;;;;;;;;;;;;22.49;70.04;101649.13;5018025;28;1245;-81
2023/07/09 02:12:13;;;;;;;;;;;;;;;22.46;70.25;101647.63;5015967;28;1511;-82
2023/07/09 02:17:27;;;;;;;;;;;;;;;22.37;70.39;101647.94;5016277;28;1284;-81
2023/07/09 02:19:55;;;;;;;;;;;;;;;22.30;70.62;101652.28;5025124;28;1440;-81
2023/07/09 02:22:28;;;;;;;;;;;;;;;22.22;70.98;101647.94;5024984;28;1281;-81
2023/07/09 02:25:01;;;;;;;;;;;;;;;22.18;71.37;101642.16;5022705;28;1965;-82
2023/07/09 02:27:35;;;;;;;;;;;;;;;22.19;71.69;101643.84;5024563;28;1642;-82
2023/07/09 02:30:08;;;;;;;;;;;;;;;22.22;71.72;101650.56;5021614;28;1233;-81
2023/07/09 02:32:53;;;;;;;;;;;;;;;;;;;;;
2023/07/09 02:35:23;;;;;;;;;;;;;;;22.25;71.51;101640.47;5025720;28;1400;-81
2023/07/09 02:37:49;;;;;;;;;;;;;;;22.29;71.50;101637.44;5022460;28;1064;-81
2023/07/09 02:40:29;;;;;;;;;;;;;;;;;;;;;
2023/07/09 02:42:59;;;;;;;;;;;;;;;22.34;71.32;101635.06;5026343;28;1399;-81
2023/07/09 02:45:32;;;;;;;;;;;;;;;22.33;71.22;101638.72;5021517;28;1926;-81
2023/07/09 02:48:05;;;;;;;;;;;;;;;22.34;71.35;101645.66;5018949;28;1221;-81
2023/07/09 02:50:48;;;;;;;;;;;;;;;;;;;;;
2023/07/09 02:53:34;;;;;;;;;;;;;;;22.31;71.42;101651.28;5017959;28;1422;-81
2023/07/09 02:59:11;;;;;;;;;;;;;;;22.10;72.02;101639.63;5022288;28;1289;-82
2023/07/09 03:04:40;;;;;;;;;;;;;;;22.00;72.64;101639.03;5003266;28;1898;-81
2023/07/09 03:07:08;;;;;;;;;;;;;;;22.00;72.52;101633.75;5022578;28;1130;-82
2023/07/09 03:09:42;;;;;;;;;;;;;;;22.02;72.51;101637.03;5019710;28;1216;-81
2023/07/09 03:12:18;;;;;;;;;;;;;;;;;;;;;
2023/07/09 03:14:57;;;;;;;;;;;;;;;22.05;72.27;101641.97;5023651;28;1272;-82
2023/07/09 03:17:34;;;;;;;;;;;;;;;22.04;72.52;101640.31;5022185;28;1229;-81
2023/07/09 03:20:17;;;;;;;;;;;;;;;22.06;72.43;101637.50;5025104;28;1219;-81
2023/07/09 03:22:52;;;;;;;;;;;;;;;;;;;;;
2023/07/09 03:25:18;;;;;;;;;;;;;;;22.01;72.37;101638.03;5024851;28;1906;-81
2023/07/09 03:27:51;;;;;;;;;;;;;;;21.99;72.43;101642.69;5025983;28;1489;-82
2023/07/09 03:30:19;;;;;;;;;;;;;;;21.98;72.41;101635.75;5019133;28;1236;-81
2023/07/09 03:32:48;;;;;;;;;;;;;;;21.95;72.65;101638.75;5024469;28;1281;-81
2023/07/09 03:35:18;;;;;;;;;;;;;;;21.91;72.64;101645.41;5028234;28;1138;-81
2023/07/09 03:38:03;;;;;;;;;;;;;;;21.88;72.88;101651.03;5022741;28;1346;-81
2023/07/09 03:40:32;;;;;;;;;;;;;;;21.79;72.95;101636.25;5022065;28;1307;-81
2023/07/09 03:43:02;;;;;;;;;;;;;;;21.70;73.14;101644.25;5024884;28;1332;-81
2023/07/09 03:45:30;;;;;;;;;;;;;;;21.64;73.31;101644.97;5022928;28;1958;-81
2023/07/09 03:47:56;;;;;;;;;;;;;;;21.59;73.53;101646.50;5022168;28;1731;-81
2023/07/09 03:50:26;;;;;;;;;;;;;;;21.54;73.97;101644.41;5018755;28;1137;-81
2023/07/09 03:53:07;;;;;;;;;;;;;;;;;;;;;
2023/07/09 03:56:04;;;;;;;;;;;;;;;;;;;;;
2023/07/09 03:58:43;;;;;;;;;;;;;;;21.44;74.19;101643.81;5021439;28;1256;-81
2023/07/09 04:01:18;;;;;;;;;;;;;;;21.42;74.52;101641.34;5014608;28;1276;-81
2023/07/09 04:04:07;;;;;;;;;;;;;;;21.43;74.30;101634.25;5014611;28;1910;-81
2023/07/09 04:06:36;;;;;;;;;;;;;;;21.40;74.40;101639.91;5012239;28;1299;-81
2023/07/09 04:09:11;;;;;;;;;;;;;;;;;;;;;
2023/07/09 04:12:03;;;;;;;;;;;;;;;21.36;74.79;101633.31;5017540;28;1396;-81
2023/07/09 04:14:46;;;;;;;;;;;;;;;;;;;;;
2023/07/09 04:17:24;;;;;;;;;;;;;;;21.38;74.79;101628.69;5025742;28;1359;-82
2023/07/09 04:19:58;;;;;;;;;;;;;;;21.39;74.81;101625.03;5016140;28;1333;-82
2023/07/09 04:22:30;;;;;;;;;;;;;;;21.39;75.03;101632.94;5023204;28;1275;-81
2023/07/09 04:25:29;;;;;;;;;;;;;;;21.40;75.17;101631.97;5021815;28;1902;-82
2023/07/09 04:28:07;;;;;;;;;;;;;;;;;;;;;
2023/07/09 04:30:37;;;;;;;;;;;;;;;21.45;75.51;101638.38;5020244;28;1074;-82
2023/07/09 04:33:05;;;;;;;;;;;;;;;21.46;75.65;101640.00;5024548;28;1503;-82
2023/07/09 04:35:50;;;;;;;;;;;;;;;21.44;75.42;101641.16;5025184;28;1366;-82
2023/07/09 04:38:26;;;;;;;;;;;;;;;21.42;75.92;101640.53;5023004;28;1220;-82
2023/07/09 04:41:11;;;;;;;;;;;;;;;21.45;75.99;101645.47;5015201;28;1466;-83
2023/07/09 04:43:54;;;;;;;;;;;;;;;;;;;;;
2023/07/09 04:46:29;;;;;;;;;;;;;;;;;;;;;
2023/07/09 04:51:43;;;;;;;;;;;;;;;21.73;75.44;101657.13;5010768;28;1308;-82
2023/07/09 04:54:22;;;;;;;;;;;;;;;21.79;75.10;101652.09;5017031;28;1211;-82
2023/07/09 04:57:03;;;;;;;;;;;;;;;21.84;74.82;101655.03;5020009;28;1125;-82
2023/07/09 04:59:29;;;;;;;;;;;;;;;21.86;74.80;101660.97;5018262;28;1099;-82
2023/07/09 05:02:07;;;;;;;;;;;;;;;;;;;;;
2023/07/09 05:04:41;;;;;;;;;;;;;;;21.93;74.59;101659.25;5020317;28;1910;-82
2023/07/09 05:07:27;;;;;;;;;;;;;;;21.97;74.68;101660.53;5019407;28;1449;-82
2023/07/09 05:09:55;;;;;;;;;;;;;;;22.01;74.50;101656.50;5021885;28;1016;-82
2023/07/09 05:12:28;;;;;;;;;;;;;;;22.01;74.49;101645.94;5021995;28;1581;-82
2023/07/09 05:15:00;;;;;;;;;;;;;;;22.06;74.56;101653.34;5020236;28;1073;-81
2023/07/09 05:17:31;;;;;;;;;;;;;;;22.07;74.71;101655.78;5020310;28;1308;-82
2023/07/09 05:19:56;;;;;;;;;;;;;;;22.08;74.99;101660.09;5017395;28;1320;-82
2023/07/09 05:22:21;;;;;;;;;;;;;;;22.11;74.96;101662.41;5024036;28;1731;-81
2023/07/09 05:27:35;;;;;;;;;;;;;;;22.18;75.20;101652.75;5030155;28;1261;-82
2023/07/09 05:30:00;;;;;;;;;;;;;;;22.22;75.14;101653.22;5026126;28;1352;-82
2023/07/09 05:32:25;;;;;;;;;;;;;;;22.23;76.03;101650.38;5028156;28;1438;-81
2023/07/09 05:34:51;;;;;;;;;;;;;;;22.26;75.93;101655.31;5031127;28;1523;-81
2023/07/09 05:37:16;;;;;;;;;;;;;;;22.30;75.80;101644.38;5028497;28;1576;-83
2023/07/09 05:39:41;;;;;;;;;;;;;;;22.34;75.69;101641.19;5029832;28;994;-82
2023/07/09 05:42:07;;;;;;;;;;;;;;;22.39;75.68;101643.28;5025687;28;1205;-82
2023/07/09 05:44:32;;;;;;;;;;;;;;;22.44;75.67;101646.19;5029022;28;1863;-82
2023/07/09 05:46:57;;;;;;;;;;;;;;;22.49;75.72;101643.84;5030141;28;1521;-82
2023/07/09 05:49:23;;;;;;;;;;;;;;;22.52;75.76;101646.91;5014286;28;1133;-82
2023/07/09 05:51:48;;;;;;;;;;;;;;;22.58;75.67;101649.81;5043274;28;1392;-82
2023/07/09 05:54:13;;;;;;;;;;;;;;;22.63;75.90;101650.91;5019924;28;1207;-82
2023/07/09 05:56:39;;;;;;;;;;;;;;;22.70;75.83;101649.16;5026576;28;1184;-82
2023/07/09 05:59:07;;;;;;;;;;;;;;;22.77;75.92;101655.38;5021140;28;1328;-83
2023/07/09 06:01:33;;;;;;;;;;;;;;;22.86;75.78;101657.91;5020919;28;1510;-82
2023/07/09 06:04:05;;;;;;;;;;;;;;;22.91;75.62;101656.38;5020313;28;1961;-82
2023/07/09 06:06:31;;;;;;;;;;;;;;;22.97;75.24;101663.56;5023665;28;1265;-82
2023/07/09 06:08:56;;;;;;;;;;;;;;;23.03;75.35;101668.09;5026770;28;1110;-82
2023/07/09 06:11:23;;;;;;;;;;;;;;;23.09;75.50;101671.81;5025928;28;1307;-83
2023/07/09 06:13:48;;;;;;;;;;;;;;;23.15;75.07;101679.00;5024810;28;1137;-82
2023/07/09 06:16:17;;;;;;;;;;;;;;;23.21;74.82;101675.63;5027431;28;1329;-81
2023/07/09 06:18:42;;;;;;;;;;;;;;;23.29;75.13;101672.06;5029981;28;1209;-82
2023/07/09 06:21:10;;;;;;;;;;;;;;;23.36;75.01;101667.63;5029447;28;1196;-82
2023/07/09 06:23:35;;;;;;;;;;;;;;;23.45;74.41;101670.97;5028114;28;1956;-82
2023/07/09 06:26:00;;;;;;;;;;;;;;;23.50;74.89;101674.69;5024866;28;1244;-82
2023/07/09 06:28:28;;;;;;;;;;;;;;;23.58;75.05;101665.81;5028090;28;1193;-82
2023/07/09 06:30:54;;;;;;;;;;;;;;;23.69;75.35;101673.28;5024145;28;1196;-82
2023/07/09 06:33:19;;;;;;;;;;;;;;;23.77;74.74;101669.66;5021610;28;1275;-82
2023/07/09 06:35:49;;;;;;;;;;;;;;;23.83;75.84;101672.34;5027342;28;1363;-82
2023/07/09 06:38:14;;;;;;;;;;;;;;;23.90;74.87;101674.22;5017588;28;1186;-81
2023/07/09 06:40:39;;;;;;;;;;;;;;;23.96;75.11;101674.28;5028622;28;1236;-83
2023/07/09 06:43:05;;;;;;;;;;;;;;;24.03;74.71;101674.34;5021868;28;1164;-82
2023/07/09 06:45:31;;;;;;;;;;;;;;;24.12;75.10;101673.16;5021861;28;1952;-82
2023/07/09 06:47:56;;;;;;;;;;;;;;;24.19;74.39;101674.03;5021511;28;1351;-82
2023/07/09 06:50:21;;;;;;;;;;;;;;;24.28;73.83;101672.88;5025264;28;1150;-82
2023/07/09 06:52:46;;;;;;;;;;;;;;;24.35;73.64;101673.75;5027225;28;1062;-82
2023/07/09 06:55:12;;;;;;;;;;;;;;;24.44;73.57;101681.56;5021230;28;1227;-83
2023/07/09 06:57:37;;;;;;;;;;;;;;;24.50;73.40;101675.47;5023532;28;1312;-82
2023/07/09 07:00:03;;;;;;;;;;;;;;;24.60;73.06;101678.56;5023907;28;1415;-82
2023/07/09 07:02:28;;;;;;;;;;;;;;;24.69;72.95;101674.75;5017903;28;1289;-82
2023/07/09 07:04:53;;;;;;;;;;;;;;;24.79;72.45;101675.19;5022378;28;1899;-83
2023/07/09 07:07:19;;;;;;;;;;;;;;;24.92;72.52;101689.53;5027302;28;1204;-82
2023/07/09 07:09:44;;;;;;;;;;;;;;;25.00;71.77;101676.06;5020771;28;1481;-82
2023/07/09 07:12:09;;;;;;;;;;;;;;;25.09;72.44;101682.88;5033833;28;1638;-82
2023/07/09 07:14:35;;;;;;;;;;;;;;;25.15;72.38;101674.09;5016055;28;1457;-83
2023/07/09 07:17:00;;;;;;;;;;;;;;;25.24;71.97;101678.22;5021347;28;1145;-83
2023/07/09 07:19:26;;;;;;;;;;;;;;;25.33;72.07;101677.00;5025853;28;1347;-82
2023/07/09 07:21:51;;;;;;;;;;;;;;;25.47;71.64;101669.88;5026286;28;1495;-83
2023/07/09 07:24:16;;;;;;;;;;;;;;;25.61;70.86;101678.66;5024622;28;1942;-82
2023/07/09 07:26:42;;;;;;;;;;;;;;;25.75;70.57;101674.19;5022334;28;1405;-82
2023/07/09 07:29:07;;;;;;;;;;;;;;;25.82;70.27;101665.22;5025010;28;1482;-82
2023/07/09 07:31:32;;;;;;;;;;;;;;;25.90;69.53;101657.00;5023326;28;1474;-82
2023/07/09 07:33:57;;;;;;;;;;;;;;;25.99;69.40;101664.78;5021947;28;1287;-82
2023/07/09 07:36:23;;;;;;;;;;;;;;;26.10;70.38;101661.50;5022823;28;1565;-82
2023/07/09 07:38:48;;;;;;;;;;;;;;;26.21;69.84;101674.16;5019437;28;1087;-82
2023/07/09 07:41:13;;;;;;;;;;;;;;;26.31;69.87;101658.56;5023323;28;1240;-82
2023/07/09 07:43:39;;;;;;;;;;;;;;;26.43;69.32;101662.25;5024714;28;1967;-82
2023/07/09 07:46:05;;;;;;;;;;;;;;;26.52;68.65;101659.38;5023795;28;1324;-82
2023/07/09 07:48:31;;;;;;;;;;;;;;;26.63;68.69;101664.03;5016516;28;1286;-82
2023/07/09 07:51:01;;;;;;;;;;;;;;;26.72;68.26;101660.94;5021618;28;1252;-82
2023/07/09 07:53:29;;;;;;;;;;;;;;;26.84;67.16;101666.41;5015322;28;1172;-82
2023/07/09 07:55:54;;;;;;;;;;;;;;;26.94;67.84;101653.41;5022148;28;1212;-82
2023/07/09 07:58:19;;;;;;;;;;;;;;;27.06;66.91;101655.41;5019688;28;1605;-82
2023/07/09 08:00:44;;;;;;;;;;;;;;;27.17;66.32;101660.06;5019497;28;1244;-82
2023/07/09 08:03:10;;;;;;;;;;;;;;;27.25;66.20;101659.84;5020857;28;1275;-82
2023/07/09 08:05:35;;;;;;;;;;;;;;;27.34;65.48;101669.19;5025802;28;1981;-83
2023/07/09 08:08:00;;;;;;;;;;;;;;;27.45;65.29;101668.47;5022110;28;1184;-82
2023/07/09 08:10:25;;;;;;;;;;;;;;;27.53;65.42;101668.22;5021372;28;1230;-82
2023/07/09 08:12:51;;;;;;;;;;;;;;;27.63;65.21;101664.25;5023659;28;1235;-82
2023/07/09 08:15:17;;;;;;;;;;;;;;;27.74;65.02;101663.56;5022310;28;1365;-82
2023/07/09 08:17:42;;;;;;;;;;;;;;;27.85;64.49;101664.72;5023577;28;1336;-82
2023/07/09 08:20:08;;;;;;;;;;;;;;;27.93;63.50;101667.91;5020585;28;1308;-81
2023/07/09 08:22:33;;;;;;;;;;;;;;;28.02;63.93;101663.09;5019858;28;1235;-81
2023/07/09 08:24:58;;;;;;;;;;;;;;;28.15;63.90;101654.94;5023610;28;1894;-81
2023/07/09 08:27:24;;;;;;;;;;;;;;;28.24;63.16;101663.50;5019390;28;1425;-82
2023/07/09 08:29:49;;;;;;;;;;;;;;;28.35;63.33;101659.31;5017666;28;1216;-82
2023/07/09 08:32:14;;;;;;;;;;;;;;;28.42;63.46;101666.19;5020546;28;1479;-82
2023/07/09 08:34:40;;;;;;;;;;;;;;;28.50;62.91;101663.22;5019925;28;1364;-82
2023/07/09 08:37:06;;;;;;;;;;;;;;;28.65;61.61;101659.34;5019407;28;1574;-82
2023/07/09 08:39:31;;;;;;;;;;;;;;;28.75;61.12;101656.97;5016998;28;1479;-82
2023/07/09 08:41:59;;;;;;;;;;;;;;;28.84;60.66;101664.41;5016871;28;1352;-82
2023/07/09 08:44:27;;;;;;;;;;;;;;;28.94;60.12;101653.22;5021284;28;1894;-82
2023/07/09 08:47:15;;;;;;;;;;;;;;;29.06;59.95;101656.75;5016144;28;1018;-82
2023/07/09 08:49:43;;;;;;;;;;;;;;;29.24;59.94;101647.03;5014541;28;1138;-82
2023/07/09 08:52:25;;;;;;;;;;;;;;;29.39;59.58;101655.44;5020143;28;1386;-82
2023/07/09 08:54:52;;;;;;;;;;;;;;;29.47;58.62;101647.06;5014844;28;1069;-82
2023/07/09 08:57:17;;;;;;;;;;;;;;;29.58;59.33;101654.31;5023531;28;1276;-82
2023/07/09 08:59:43;;;;;;;;;;;;;;;29.69;58.00;101641.19;5026092;28;1259;-82
2023/07/09 09:02:38;;;;;;;;;;;;;;;29.81;57.15;101642.81;5025951;28;1145;-82
2023/07/09 09:05:04;;;;;;;;;;;;;;;29.97;57.33;101646.63;5016376;28;1898;-82
2023/07/09 09:07:41;;;;;;;;;;;;;;;30.00;55.19;101656.88;5028860;28;1396;-82
2023/07/09 09:10:13;;;;;;;;;;;;;;;30.08;54.88;101653.84;5027005;28;1117;-82
2023/07/09 09:12:40;;;;;;;;;;;;;;;30.15;52.71;101654.53;5025533;28;1288;-82
2023/07/09 09:15:17;;;;;;;;;;;;;;;30.25;54.17;101655.81;5028757;28;1126;-83
2023/07/09 09:17:42;;;;;;;;;;;;;;;30.25;52.33;101650.47;5022432;28;1261;-83
2023/07/09 09:20:15;;;;;;;;;;;;;;;30.31;51.91;101654.88;5025242;28;1423;-82
2023/07/09 09:22:41;;;;;;;;;;;;;;;30.39;51.47;101654.50;5022482;28;1193;-82
2023/07/09 09:25:15;;;;;;;;;;;;;;;30.51;51.12;101647.25;5025109;28;1949;-82
2023/07/09 09:27:41;;;;;;;;;;;;;;;30.57;50.32;101640.97;5018522;28;1226;-82
2023/07/09 09:30:13;;;;;;;;;;;;;;;30.70;50.29;101645.25;5020403;28;1249;-82
2023/07/09 09:32:43;;;;;;;;;;;;;;;30.82;49.94;101642.50;5022287;28;1176;-82
2023/07/09 09:35:13;;;;;;;;;;;;;;;30.89;48.98;101645.84;5021198;28;1208;-83
2023/07/09 09:37:38;;;;;;;;;;;;;;;30.95;48.47;101652.91;5020130;28;1256;-83
2023/07/09 09:40:04;;;;;;;;;;;;;;;31.06;50.21;101654.72;5023887;28;1523;-82
2023/07/09 09:42:29;;;;;;;;;;;;;;;31.06;49.26;101654.72;5023367;28;1569;-82
2023/07/09 09:44:55;;;;;;;;;;;;;;;31.14;49.37;101662.38;5016548;28;1886;-83
2023/07/09 09:47:20;;;;;;;;;;;;;;;31.20;48.73;101644.53;5023427;28;1522;-82
2023/07/09 09:49:45;;;;;;;;;;;;;;;31.29;48.69;101643.06;5021317;28;1540;-82
2023/07/09 09:52:14;;;;;;;;;;;;;;;31.34;48.64;101636.97;5020565;28;1075;-82
2023/07/09 09:54:40;;;;;;;;;;;;;;;31.36;48.25;101632.19;5026355;28;1213;-82
2023/07/09 09:57:16;;;;;;;;;;;;;;;31.44;45.86;101639.84;5028632;28;1161;-82
2023/07/09 09:59:41;;;;;;;;;;;;;;;31.54;47.93;101634.59;5023569;28;1169;-83
2023/07/09 10:02:20;;;;;;;;;;;;;;;31.63;48.00;101625.09;5019007;28;1251;-82
2023/07/09 10:04:46;;;;;;;;;;;;;;;31.72;46.73;101620.13;5021007;28;1902;-82
2023/07/09 10:07:18;;;;;;;;;;;;;;;31.85;45.51;101619.81;5022551;28;1248;-82
2023/07/09 10:09:49;;;;;;;;;;;;;;;31.88;46.12;101613.13;5025390;28;1663;-82
2023/07/09 10:12:15;;;;;;;;;;;;;;;31.94;45.93;101612.13;5015331;28;1155;-82
2023/07/09 10:14:40;;;;;;;;;;;;;;;32.00;45.82;101605.75;5026782;28;1561;-83
2023/07/09 10:17:13;;;;;;;;;;;;;;;32.11;45.33;101612.88;5023414;28;1267;-83
2023/07/09 10:19:59;;;;;;;;;;;;;;;32.21;45.30;101617.56;5036921;28;1495;-83
2023/07/09 10:22:34;;;;;;;;;;;;;;;32.31;45.33;101611.50;5022376;28;1273;-83
2023/07/09 10:25:12;;;;;;;;;;;;;;;32.34;43.61;101616.34;5023646;28;1918;-83
2023/07/09 10:27:40;;;;;;;;;;;;;;;32.33;44.08;101612.06;5025572;28;1297;-82
2023/07/09 10:30:11;;;;;;;;;;;;;;;32.25;43.69;101607.94;5027057;28;1250;-82
2023/07/09 10:32:56;;;;;;;;;;;;;;;32.32;44.02;101616.63;5039480;28;1305;-82
2023/07/09 10:35:27;;;;;;;;;;;;;;;32.41;43.32;101623.22;5021764;28;1748;-83
2023/07/09 10:38:11;;;;;;;;;;;;;;;32.55;44.87;101625.50;5020296;28;1371;-83
2023/07/09 10:40:39;;;;;;;;;;;;;;;32.63;45.18;101625.88;5023704;28;1243;-83
2023/07/09 10:43:08;;;;;;;;;;;;;;;32.77;44.82;101626.25;5016044;28;1429;-83
2023/07/09 10:45:39;;;;;;;;;;;;;;;32.91;44.44;101626.69;5021022;28;1898;-83
2023/07/09 10:48:10;;;;;;;;;;;;;;;32.86;44.68;101630.13;5024410;28;1107;-83
2023/07/09 10:50:37;;;;;;;;;;;;;;;32.84;43.49;101632.22;5026623;28;1290;-82
2023/07/09 10:53:10;;;;;;;;;;;;;;;32.80;44.01;101635.69;5025308;28;1064;-83
2023/07/09 10:55:41;;;;;;;;;;;;;;;32.78;43.17;101639.44;5020444;28;1220;-83
2023/07/09 10:58:36;;;;;;;;;;;;;;;32.72;44.32;101639.63;5027432;28;1492;-82
2023/07/09 11:01:02;;;;;;;;;;;;;;;32.68;45.24;101636.63;5009079;28;1286;-83
2023/07/09 11:03:46;;;;;;;;;;;;;;;32.74;43.74;101632.94;5020744;28;1316;-82
2023/07/09 11:06:22;;;;;;;;;;;;;;;32.71;44.31;101633.47;5020916;28;1459;-82
2023/07/09 11:08:48;;;;;;;;;;;;;;;32.82;44.81;101628.19;5021598;28;1240;-83
2023/07/09 11:11:21;;;;;;;;;;;;;;;32.90;45.25;101625.06;5024260;28;1301;-83
2023/07/09 11:13:54;;;;;;;;;;;;;;;32.97;45.89;101620.28;5022020;28;1245;-82
2023/07/09 11:16:29;;;;;;;;;;;;;;;32.98;45.05;101616.56;5021788;28;1064;-82
2023/07/09 11:18:58;;;;;;;;;;;;;;;32.95;44.31;101609.78;5023523;28;1104;-83
2023/07/09 11:21:23;;;;;;;;;;;;;;;32.97;45.00;101609.53;5017988;28;1265;-82
2023/07/09 11:23:56;;;;;;;;;;;;;;;32.92;44.09;101612.16;5025075;28;1894;-82
2023/07/09 11:26:25;;;;;;;;;;;;;;;32.85;44.65;101600.78;5025457;28;1089;-83
2023/07/09 11:28:51;;;;;;;;;;;;;;;32.75;40.91;101607.72;5023007;28;1279;-82
2023/07/09 11:31:24;;;;;;;;;;;;;;;32.68;43.76;101603.59;5019636;28;1268;-82
2023/07/09 11:33:58;;;;;;;;;;;;;;;32.66;44.34;101603.03;5021631;28;1496;-83
2023/07/09 11:36:25;;;;;;;;;;;;;;;32.63;45.07;101614.28;5025229;28;1459;-83
2023/07/09 11:38:51;;;;;;;;;;;;;;;32.57;45.43;101621.47;5021012;28;1286;-83
2023/07/09 11:41:27;;;;;;;;;;;;;;;32.52;45.58;101624.13;5018905;28;1091;-83
2023/07/09 11:43:53;;;;;;;;;;;;;;;32.47;45.62;101626.75;5024533;28;1898;-83
2023/07/09 11:46:20;;;;;;;;;;;;;;;32.41;45.56;101633.16;5017676;28;1054;-82
2023/07/09 11:48:46;;;;;;;;;;;;;;;32.30;46.08;101626.81;5019968;28;1167;-82
2023/07/09 11:51:16;;;;;;;;;;;;;;;32.18;46.75;101640.38;5020559;28;1187;-82
2023/07/09 11:53:44;;;;;;;;;;;;;;;32.13;46.98;101634.94;5024198;28;1269;-82
2023/07/09 11:56:09;;;;;;;;;;;;;;;32.13;46.71;101637.63;5020760;28;1491;-82
2023/07/09 11:58:34;;;;;;;;;;;;;;;32.12;47.02;101643.25;5015478;28;1357;-82
2023/07/09 12:01:01;;;;;;;;;;;;;;;32.10;46.97;101643.47;5023601;28;1141;-82
2023/07/09 12:03:29;;;;;;;;;;;;;;;32.09;46.84;101647.22;5018925;28;1070;-82
2023/07/09 12:06:00;;;;;;;;;;;;;;;32.11;47.27;101644.28;5020473;28;1898;-82
2023/07/09 12:08:27;;;;;;;;;;;;;;;32.07;46.81;101660.09;5019798;28;1301;-82
2023/07/09 12:10:53;;;;;;;;;;;;;;;32.01;46.95;101655.72;5020032;28;1275;-83
2023/07/09 12:13:18;;;;;;;;;;;;;;;32.00;47.06;101646.00;5023050;28;1313;-83
2023/07/09 12:15:43;;;;;;;;;;;;;;;32.02;47.44;101645.78;5022935;28;1279;-82
2023/07/09 12:18:13;;;;;;;;;;;;;;;31.98;47.86;101640.09;5018916;28;1346;-82
2023/07/09 12:20:38;;;;;;;;;;;;;;;32.01;48.13;101636.94;5020139;28;1136;-83
2023/07/09 12:23:23;;;;;;;;;;;;;;;31.99;48.00;101630.97;5024615;28;1617;-83
2023/07/09 12:25:49;;;;;;;;;;;;;;;31.95;48.56;101630.69;5022608;28;1983;-82
2023/07/09 12:28:15;;;;;;;;;;;;;;;31.96;48.60;101628.81;5021811;28;1168;-83
2023/07/09 12:30:45;;;;;;;;;;;;;;;31.98;48.53;101626.66;5019544;28;1041;-82
2023/07/09 12:33:15;;;;;;;;;;;;;;;31.90;48.74;101611.00;5015681;28;1080;-82
2023/07/09 12:35:40;;;;;;;;;;;;;;;31.92;49.11;101611.56;5023821;28;1210;-82
2023/07/09 12:38:15;;;;;;;;;;;;;;;31.95;48.86;101613.75;5021690;28;1086;-82
2023/07/09 12:40:41;;;;;;;;;;;;;;;31.98;48.80;101605.19;5020572;28;1442;-82
2023/07/09 12:43:09;;;;;;;;;;;;;;;32.03;49.01;101605.28;5016480;28;1180;-82
2023/07/09 12:45:35;;;;;;;;;;;;;;;32.05;49.16;101597.78;5019395;28;1929;-82
2023/07/09 12:48:00;;;;;;;;;;;;;;;32.06;48.71;101607.47;5016845;28;1192;-82
2023/07/09 12:50:29;;;;;;;;;;;;;;;32.06;48.80;101599.41;5017374;28;1104;-82
2023/07/09 12:52:54;;;;;;;;;;;;;;;32.14;48.81;101619.63;5020356;28;1221;-82
2023/07/09 12:55:21;;;;;;;;;;;;;;;32.12;48.49;101629.81;5014353;28;1183;-82
2023/07/09 12:57:46;;;;;;;;;;;;;;;32.12;49.55;101636.00;5013136;28;1228;-83
2023/07/09 13:00:17;;;;;;;;;;;;;;;31.84;50.19;101628.09;5017654;28;1227;-82
2023/07/09 13:02:42;;;;;;;;;;;;;;;31.76;51.12;101625.81;5022110;28;1177;-82
2023/07/09 13:05:17;;;;;;;;;;;;;;;31.61;51.78;101619.19;5015657;28;1910;-82
2023/07/09 13:07:46;;;;;;;;;;;;;;;31.36;52.36;101611.53;5018539;28;1055;-83
2023/07/09 13:10:16;;;;;;;;;;;;;;;31.33;51.94;101605.88;5020532;28;1118;-82
2023/07/09 13:12:44;;;;;;;;;;;;;;;30.99;52.99;101611.19;5020232;28;1200;-82
2023/07/09 13:15:24;;;;;;;;;;;;;;;30.85;53.12;101620.56;5023924;28;1096;-84
2023/07/09 13:17:49;;;;;;;;;;;;;;;30.59;52.97;101628.13;5022313;28;1359;-82
2023/07/09 13:20:15;;;;;;;;;;;;;;;30.53;53.58;101634.44;5022036;28;1180;-82
2023/07/09 13:22:41;;;;;;;;;;;;;;;30.43;53.42;101628.88;5021893;28;1175;-82
2023/07/09 13:25:08;;;;;;;;;;;;;;;30.32;52.96;101632.41;5023175;28;1914;-82
2023/07/09 13:27:33;;;;;;;;;;;;;;;30.20;53.26;101634.31;5026304;28;1129;-82
2023/07/09 13:30:20;;;;;;;;;;;;;;;30.07;53.78;101620.09;5019156;28;1176;-82
2023/07/09 13:32:47;;;;;;;;;;;;;;;29.82;53.55;101632.91;5022950;28;1061;-82
2023/07/09 13:35:18;;;;;;;;;;;;;;;29.75;53.81;101635.72;5019801;28;1141;-82
2023/07/09 13:38:05;;;;;;;;;;;;;;;29.49;53.70;101650.34;5017148;28;1305;-82
2023/07/09 13:40:30;;;;;;;;;;;;;;;29.34;54.08;101636.59;5023077;28;1105;-82
2023/07/09 13:42:55;;;;;;;;;;;;;;;29.27;54.75;101643.91;5025587;28;1301;-83
2023/07/09 13:45:22;;;;;;;;;;;;;;;29.05;54.59;101644.44;5024741;28;1906;-82
2023/07/09 13:47:49;;;;;;;;;;;;;;;28.94;55.14;101647.88;5022174;28;1401;-82
2023/07/09 13:50:16;;;;;;;;;;;;;;;28.78;55.79;101648.47;5023361;28;1239;-82